EWG50B EDDL-EKCH
Flight info
| Callsign | EWG50B |
|---|---|
| Flight time | 0h 59m |
| Altitude | 35000 |
| Route | MEVEL4T/23L MEVEL Y850 BASUM M170 STADE DCT MEGAR P605 GESKA Z711 MONAK MONA5C |
| Aircraft | A319/M-SDE3FGHIRWY/LB1 |
Departure
| Time | 2026-05-04 18:04 |
|---|---|
| Airport | Düsseldorf Airport (EDDL) |
Arrival
| Time | 2026-05-04 19:04 |
|---|---|
| Airport | Copenhagen Kastrup Airport (EKCH) |
| Time | Latitude | Longitude | Altitude | Speed | Heading |
|---|---|---|---|---|---|
| 2026-05-04 17:25 | 51.28155 | 6.76735 | 129 ft | 0 kts | 276° |
| 2026-05-04 17:49 | 51.28154 | 6.76748 | 125 ft | 4 kts | 275° |
| 2026-05-04 17:50 | 51.28153 | 6.76791 | 127 ft | 4 kts | 262° |
| 2026-05-04 17:50 | 51.28161 | 6.76828 | 125 ft | 4 kts | 218° |
| 2026-05-04 17:50 | 51.28180 | 6.76839 | 126 ft | 4 kts | 187° |
| 2026-05-04 17:50 | 51.28207 | 6.76843 | 127 ft | 4 kts | 185° |
| 2026-05-04 17:51 | 51.28234 | 6.76847 | 129 ft | 4 kts | 184° |
| 2026-05-04 17:51 | 51.28261 | 6.76850 | 129 ft | 4 kts | 185° |
| 2026-05-04 17:51 | 51.28288 | 6.76856 | 129 ft | 4 kts | 196° |
| 2026-05-04 17:51 | 51.28307 | 6.76870 | 128 ft | 3 kts | 218° |
| 2026-05-04 17:52 | 51.28327 | 6.76899 | 126 ft | 4 kts | 227° |
| 2026-05-04 17:52 | 51.28345 | 6.76932 | 123 ft | 4 kts | 234° |
| 2026-05-04 17:52 | 51.28360 | 6.76967 | 123 ft | 3 kts | 233° |
| 2026-05-04 17:52 | 51.28363 | 6.76973 | 125 ft | 0 kts | 233° |
| 2026-05-04 17:55 | 51.28351 | 6.76937 | 126 ft | 8 kts | 252° |
| 2026-05-04 17:55 | 51.28383 | 6.76853 | 128 ft | 10 kts | 323° |
| 2026-05-04 17:55 | 51.28452 | 6.76775 | 126 ft | 13 kts | 334° |
| 2026-05-04 17:56 | 51.28518 | 6.76838 | 125 ft | 12 kts | 52° |
| 2026-05-04 17:56 | 51.28569 | 6.76944 | 127 ft | 12 kts | 52° |
| 2026-05-04 17:56 | 51.28622 | 6.77054 | 127 ft | 13 kts | 52° |
| 2026-05-04 17:56 | 51.28679 | 6.77173 | 127 ft | 14 kts | 54° |
| 2026-05-04 17:57 | 51.28741 | 6.77301 | 127 ft | 15 kts | 50° |
| 2026-05-04 17:57 | 51.28806 | 6.77440 | 129 ft | 16 kts | 53° |
| 2026-05-04 17:57 | 51.28867 | 6.77569 | 127 ft | 14 kts | 53° |
| 2026-05-04 17:57 | 51.28930 | 6.77700 | 126 ft | 15 kts | 52° |
| 2026-05-04 17:58 | 51.28997 | 6.77841 | 128 ft | 16 kts | 53° |
| 2026-05-04 17:58 | 51.29067 | 6.77989 | 127 ft | 17 kts | 53° |
| 2026-05-04 17:58 | 51.29138 | 6.78137 | 134 ft | 16 kts | 52° |
| 2026-05-04 17:58 | 51.29200 | 6.78269 | 139 ft | 14 kts | 53° |
| 2026-05-04 17:59 | 51.29249 | 6.78371 | 143 ft | 10 kts | 53° |
| 2026-05-04 17:59 | 51.29285 | 6.78447 | 146 ft | 7 kts | 52° |
| 2026-05-04 17:59 | 51.29325 | 6.78528 | 150 ft | 4 kts | 52° |
| 2026-05-04 18:00 | 51.29350 | 6.78564 | 152 ft | 5 kts | 26° |
| 2026-05-04 18:00 | 51.29381 | 6.78574 | 152 ft | 5 kts | 4° |
| 2026-05-04 18:00 | 51.29414 | 6.78571 | 153 ft | 4 kts | 355° |
| 2026-05-04 18:00 | 51.29446 | 6.78567 | 152 ft | 0 kts | 355° |
| 2026-05-04 18:01 | 51.29447 | 6.78567 | 152 ft | 0 kts | 355° |
| 2026-05-04 18:03 | 51.29482 | 6.78561 | 152 ft | 14 kts | 350° |
| 2026-05-04 18:03 | 51.29501 | 6.78432 | 149 ft | 6 kts | 234° |
| 2026-05-04 18:03 | 51.29470 | 6.78364 | 148 ft | 10 kts | 234° |
| 2026-05-04 18:04 | 51.29346 | 6.78105 | 141 ft | 69 kts | 233° |
| 2026-05-04 18:04 | 51.28883 | 6.77134 | 129 ft | 146 kts | 232° |
| 2026-05-04 18:04 | 51.27460 | 6.74088 | 1196 ft | 184 kts | 231° |
| 2026-05-04 18:05 | 51.26849 | 6.72243 | 1925 ft | 197 kts | 258° |
| 2026-05-04 18:05 | 51.27112 | 6.70114 | 2866 ft | 204 kts | 303° |
| 2026-05-04 18:05 | 51.28253 | 6.68768 | 3826 ft | 209 kts | 339° |
| 2026-05-04 18:05 | 51.29708 | 6.68481 | 4680 ft | 220 kts | 4° |
| 2026-05-04 18:06 | 51.33129 | 6.68932 | 5800 ft | 270 kts | 5° |
| 2026-05-04 18:06 | 51.35026 | 6.69161 | 6666 ft | 281 kts | 4° |
| 2026-05-04 18:06 | 51.37031 | 6.69390 | 7714 ft | 285 kts | 4° |
| 2026-05-04 18:07 | 51.38994 | 6.69592 | 8777 ft | 289 kts | 3° |
| 2026-05-04 18:07 | 51.41012 | 6.69680 | 9910 ft | 290 kts | 1° |
| 2026-05-04 18:07 | 51.43083 | 6.69693 | 10539 ft | 309 kts | 0° |
| 2026-05-04 18:07 | 51.45296 | 6.69674 | 11157 ft | 324 kts | 0° |
| 2026-05-04 18:08 | 51.47571 | 6.69649 | 12005 ft | 330 kts | 0° |
| 2026-05-04 18:08 | 51.49892 | 6.69627 | 12879 ft | 336 kts | 0° |
| 2026-05-04 18:08 | 51.52245 | 6.69613 | 13756 ft | 341 kts | 0° |
| 2026-05-04 18:08 | 51.54630 | 6.69607 | 14540 ft | 346 kts | 0° |
| 2026-05-04 18:09 | 51.59312 | 6.71226 | 15971 ft | 356 kts | 32° |
| 2026-05-04 18:09 | 51.62967 | 6.76799 | 17045 ft | 377 kts | 47° |
| 2026-05-04 18:10 | 51.64841 | 6.80004 | 17170 ft | 399 kts | 48° |
| 2026-05-04 18:10 | 51.66787 | 6.83338 | 17313 ft | 418 kts | 48° |
| 2026-05-04 18:10 | 51.68820 | 6.86814 | 17448 ft | 434 kts | 47° |
| 2026-05-04 18:10 | 51.70928 | 6.90410 | 17725 ft | 445 kts | 47° |
| 2026-05-04 18:11 | 51.73099 | 6.94114 | 18184 ft | 450 kts | 47° |
| 2026-05-04 18:11 | 51.75228 | 6.97756 | 18602 ft | 455 kts | 47° |
| 2026-05-04 18:11 | 51.77405 | 7.01494 | 19018 ft | 458 kts | 47° |
| 2026-05-04 18:11 | 51.79598 | 7.05258 | 19420 ft | 462 kts | 47° |
| 2026-05-04 18:12 | 51.81789 | 7.09021 | 19797 ft | 465 kts | 47° |
| 2026-05-04 18:12 | 51.84016 | 7.12848 | 20182 ft | 468 kts | 47° |
| 2026-05-04 18:12 | 51.86260 | 7.16713 | 20566 ft | 471 kts | 47° |
| 2026-05-04 18:12 | 51.88509 | 7.20593 | 20924 ft | 474 kts | 47° |
| 2026-05-04 18:13 | 51.90775 | 7.24508 | 21272 ft | 477 kts | 47° |
| 2026-05-04 18:13 | 51.93054 | 7.28457 | 21619 ft | 480 kts | 47° |
| 2026-05-04 18:13 | 51.97637 | 7.36424 | 22268 ft | 487 kts | 48° |
| 2026-05-04 18:14 | 51.99932 | 7.40424 | 22525 ft | 492 kts | 48° |
| 2026-05-04 18:14 | 52.02263 | 7.44492 | 22816 ft | 495 kts | 48° |
| 2026-05-04 18:14 | 52.04614 | 7.48597 | 23121 ft | 498 kts | 48° |
| 2026-05-04 18:15 | 52.09357 | 7.56899 | 23697 ft | 503 kts | 48° |
| 2026-05-04 18:15 | 52.14137 | 7.65296 | 24202 ft | 507 kts | 48° |
| 2026-05-04 18:15 | 52.16542 | 7.69533 | 24448 ft | 509 kts | 48° |
| 2026-05-04 18:16 | 52.18948 | 7.73779 | 24681 ft | 511 kts | 48° |
| 2026-05-04 18:16 | 52.21356 | 7.78037 | 25016 ft | 511 kts | 48° |
| 2026-05-04 18:16 | 52.23768 | 7.82299 | 25379 ft | 511 kts | 48° |
| 2026-05-04 18:17 | 52.28583 | 7.90837 | 26140 ft | 510 kts | 48° |
| 2026-05-04 18:17 | 52.30953 | 7.95055 | 26511 ft | 510 kts | 47° |
| 2026-05-04 18:17 | 52.35760 | 8.03623 | 27249 ft | 511 kts | 47° |
| 2026-05-04 18:18 | 52.38156 | 8.07902 | 27663 ft | 511 kts | 47° |
| 2026-05-04 18:18 | 52.40566 | 8.12220 | 28092 ft | 511 kts | 47° |
| 2026-05-04 18:18 | 52.42960 | 8.16526 | 28517 ft | 511 kts | 47° |
| 2026-05-04 18:18 | 52.45394 | 8.20913 | 28955 ft | 511 kts | 47° |
| 2026-05-04 18:19 | 52.50150 | 8.29496 | 29819 ft | 512 kts | 47° |
| 2026-05-04 18:19 | 52.52548 | 8.33829 | 30192 ft | 514 kts | 47° |
| 2026-05-04 18:19 | 52.54952 | 8.38180 | 30564 ft | 514 kts | 47° |
| 2026-05-04 18:20 | 52.57353 | 8.42533 | 30966 ft | 514 kts | 47° |
| 2026-05-04 18:20 | 52.59761 | 8.46908 | 31376 ft | 513 kts | 47° |
| 2026-05-04 18:20 | 52.62122 | 8.51207 | 31788 ft | 513 kts | 47° |
| 2026-05-04 18:20 | 52.64506 | 8.55558 | 32198 ft | 512 kts | 47° |
| 2026-05-04 18:21 | 52.66896 | 8.59931 | 32671 ft | 511 kts | 47° |
| 2026-05-04 18:21 | 52.69269 | 8.64274 | 33124 ft | 510 kts | 47° |
| 2026-05-04 18:21 | 52.71637 | 8.68615 | 33558 ft | 510 kts | 46° |
| 2026-05-04 18:21 | 52.74033 | 8.72631 | 33948 ft | 508 kts | 38° |
| 2026-05-04 18:22 | 52.76888 | 8.76013 | 34311 ft | 503 kts | 26° |
| 2026-05-04 18:22 | 52.80034 | 8.78346 | 34699 ft | 494 kts | 13° |
| 2026-05-04 18:22 | 52.83334 | 8.79706 | 34924 ft | 488 kts | 5° |
| 2026-05-04 18:22 | 52.86691 | 8.80452 | 34975 ft | 484 kts | 0° |
| 2026-05-04 18:23 | 52.93396 | 8.81732 | 34989 ft | 484 kts | 2° |
| 2026-05-04 18:23 | 53.00068 | 8.83113 | 34976 ft | 482 kts | 1° |
| 2026-05-04 18:24 | 53.06722 | 8.84395 | 34975 ft | 481 kts | 1° |
| 2026-05-04 18:24 | 53.13263 | 8.85591 | 34975 ft | 481 kts | 1° |
| 2026-05-04 18:25 | 53.19926 | 8.86828 | 34978 ft | 481 kts | 1° |
| 2026-05-04 18:25 | 53.26521 | 8.88072 | 34983 ft | 481 kts | 1° |
| 2026-05-04 18:26 | 53.33147 | 8.89328 | 34997 ft | 481 kts | 1° |
| 2026-05-04 18:26 | 53.39840 | 8.90599 | 34994 ft | 481 kts | 1° |
| 2026-05-04 18:27 | 53.46529 | 8.91873 | 35018 ft | 480 kts | 1° |
| 2026-05-04 18:27 | 53.53122 | 8.93210 | 35019 ft | 482 kts | 6° |
| 2026-05-04 18:28 | 53.56304 | 8.94951 | 35019 ft | 491 kts | 22° |
| 2026-05-04 18:28 | 53.59321 | 8.97697 | 35021 ft | 493 kts | 25° |
| 2026-05-04 18:28 | 53.65312 | 9.03373 | 35016 ft | 492 kts | 25° |
| 2026-05-04 18:29 | 53.71272 | 9.09078 | 35030 ft | 491 kts | 25° |
| 2026-05-04 18:29 | 53.77212 | 9.14764 | 35022 ft | 489 kts | 25° |
| 2026-05-04 18:30 | 53.86088 | 9.23235 | 35012 ft | 488 kts | 25° |
| 2026-05-04 18:31 | 53.91961 | 9.28883 | 35019 ft | 488 kts | 25° |
| 2026-05-04 18:31 | 53.97861 | 9.34589 | 35011 ft | 487 kts | 25° |
| 2026-05-04 18:32 | 54.03750 | 9.40302 | 35004 ft | 487 kts | 25° |
| 2026-05-04 18:32 | 54.09636 | 9.46031 | 34995 ft | 487 kts | 25° |
| 2026-05-04 18:33 | 54.15531 | 9.51782 | 35016 ft | 486 kts | 25° |
| 2026-05-04 18:33 | 54.21369 | 9.57495 | 35014 ft | 487 kts | 26° |
| 2026-05-04 18:34 | 54.27241 | 9.63258 | 34999 ft | 486 kts | 25° |
| 2026-05-04 18:34 | 54.33127 | 9.69040 | 34998 ft | 486 kts | 25° |
| 2026-05-04 18:35 | 54.38857 | 9.75254 | 35021 ft | 490 kts | 31° |
| 2026-05-04 18:35 | 54.44368 | 9.82098 | 35012 ft | 490 kts | 32° |
| 2026-05-04 18:36 | 54.49845 | 9.89067 | 35004 ft | 490 kts | 33° |
| 2026-05-04 18:36 | 54.55350 | 9.96050 | 34998 ft | 490 kts | 32° |
| 2026-05-04 18:37 | 54.60852 | 10.02973 | 35017 ft | 490 kts | 32° |
| 2026-05-04 18:37 | 54.66329 | 10.09894 | 35011 ft | 490 kts | 33° |
| 2026-05-04 18:38 | 54.71826 | 10.16871 | 35001 ft | 490 kts | 33° |
| 2026-05-04 18:38 | 54.77307 | 10.23867 | 34996 ft | 490 kts | 33° |
| 2026-05-04 18:39 | 54.82794 | 10.30909 | 35022 ft | 490 kts | 33° |
| 2026-05-04 18:39 | 54.87328 | 10.36744 | 34684 ft | 484 kts | 33° |
| 2026-05-04 18:39 | 54.90948 | 10.41404 | 33585 ft | 484 kts | 33° |
| 2026-05-04 18:40 | 54.93626 | 10.44854 | 32587 ft | 486 kts | 33° |
| 2026-05-04 18:40 | 54.96351 | 10.48366 | 31495 ft | 490 kts | 33° |
| 2026-05-04 18:40 | 54.99107 | 10.51923 | 30348 ft | 495 kts | 32° |
| 2026-05-04 18:40 | 55.00985 | 10.54348 | 29455 ft | 500 kts | 32° |
| 2026-05-04 18:41 | 55.04703 | 10.59169 | 27698 ft | 504 kts | 33° |
| 2026-05-04 18:41 | 55.06601 | 10.61639 | 26890 ft | 504 kts | 34° |
| 2026-05-04 18:41 | 55.09361 | 10.65262 | 25820 ft | 501 kts | 35° |
| 2026-05-04 18:41 | 55.11881 | 10.69460 | 24686 ft | 501 kts | 49° |
| 2026-05-04 18:42 | 55.13811 | 10.74530 | 23728 ft | 497 kts | 58° |
| 2026-05-04 18:42 | 55.15579 | 10.79664 | 22712 ft | 491 kts | 57° |
| 2026-05-04 18:42 | 55.17344 | 10.84780 | 22190 ft | 489 kts | 57° |
| 2026-05-04 18:42 | 55.19095 | 10.89855 | 21955 ft | 478 kts | 57° |
| 2026-05-04 18:43 | 55.20768 | 10.94726 | 21972 ft | 452 kts | 57° |
| 2026-05-04 18:43 | 55.22345 | 10.99333 | 21978 ft | 432 kts | 57° |
| 2026-05-04 18:43 | 55.23879 | 11.03813 | 21975 ft | 426 kts | 57° |
| 2026-05-04 18:43 | 55.25402 | 11.08260 | 21967 ft | 424 kts | 57° |
| 2026-05-04 18:44 | 55.26899 | 11.12632 | 21740 ft | 422 kts | 57° |
| 2026-05-04 18:44 | 55.27924 | 11.15635 | 21029 ft | 429 kts | 57° |
| 2026-05-04 18:44 | 55.29945 | 11.21566 | 20364 ft | 418 kts | 57° |
| 2026-05-04 18:44 | 55.31420 | 11.25917 | 19597 ft | 410 kts | 57° |
| 2026-05-04 18:45 | 55.32866 | 11.30193 | 18770 ft | 405 kts | 57° |
| 2026-05-04 18:45 | 55.34294 | 11.34422 | 18138 ft | 400 kts | 57° |
| 2026-05-04 18:45 | 55.35720 | 11.38650 | 18028 ft | 403 kts | 57° |
| 2026-05-04 18:45 | 55.37139 | 11.42865 | 17725 ft | 395 kts | 57° |
| 2026-05-04 18:46 | 55.38505 | 11.46931 | 17564 ft | 379 kts | 57° |
| 2026-05-04 18:46 | 55.39825 | 11.50865 | 17425 ft | 366 kts | 57° |
| 2026-05-04 18:46 | 55.41092 | 11.54652 | 17290 ft | 354 kts | 57° |
| 2026-05-04 18:46 | 55.42316 | 11.58320 | 17148 ft | 343 kts | 57° |
| 2026-05-04 18:47 | 55.43558 | 11.61850 | 17028 ft | 332 kts | 51° |
| 2026-05-04 18:47 | 55.45038 | 11.64871 | 16864 ft | 320 kts | 40° |
| 2026-05-04 18:47 | 55.46681 | 11.67465 | 16582 ft | 316 kts | 37° |
| 2026-05-04 18:47 | 55.48363 | 11.70076 | 15963 ft | 326 kts | 37° |
| 2026-05-04 18:48 | 55.50038 | 11.72687 | 15829 ft | 317 kts | 37° |
| 2026-05-04 18:48 | 55.51679 | 11.75257 | 15628 ft | 312 kts | 37° |
| 2026-05-04 18:48 | 55.53298 | 11.77793 | 15357 ft | 310 kts | 37° |
| 2026-05-04 18:48 | 55.54831 | 11.80394 | 15045 ft | 312 kts | 48° |
| 2026-05-04 18:49 | 55.55889 | 11.83757 | 14753 ft | 315 kts | 66° |
| 2026-05-04 18:49 | 55.56716 | 11.87336 | 14460 ft | 314 kts | 66° |
| 2026-05-04 18:49 | 55.57537 | 11.90924 | 14173 ft | 313 kts | 66° |
| 2026-05-04 18:49 | 55.58347 | 11.94476 | 13897 ft | 312 kts | 66° |
| 2026-05-04 18:50 | 55.59154 | 11.98025 | 13549 ft | 312 kts | 66° |
| 2026-05-04 18:50 | 55.59970 | 12.01614 | 13018 ft | 318 kts | 66° |
| 2026-05-04 18:50 | 55.60796 | 12.05260 | 12606 ft | 319 kts | 66° |
| 2026-05-04 18:50 | 55.61609 | 12.08859 | 12233 ft | 319 kts | 66° |
| 2026-05-04 18:51 | 55.62445 | 12.12572 | 11840 ft | 318 kts | 66° |
| 2026-05-04 18:51 | 55.63260 | 12.16196 | 11551 ft | 312 kts | 66° |
| 2026-05-04 18:51 | 55.64039 | 12.19665 | 11401 ft | 295 kts | 66° |
| 2026-05-04 18:51 | 55.64795 | 12.23027 | 10875 ft | 294 kts | 66° |
| 2026-05-04 18:52 | 55.65547 | 12.26374 | 10383 ft | 291 kts | 66° |
| 2026-05-04 18:52 | 55.66287 | 12.29683 | 9900 ft | 288 kts | 66° |
| 2026-05-04 18:52 | 55.67022 | 12.32962 | 9413 ft | 283 kts | 66° |
| 2026-05-04 18:52 | 55.67737 | 12.36168 | 8923 ft | 279 kts | 66° |
| 2026-05-04 18:53 | 55.68422 | 12.39247 | 8376 ft | 277 kts | 66° |
| 2026-05-04 18:53 | 55.69068 | 12.42155 | 7864 ft | 276 kts | 66° |
| 2026-05-04 18:53 | 55.69733 | 12.45148 | 7344 ft | 275 kts | 66° |
| 2026-05-04 18:53 | 55.70423 | 12.48255 | 6815 ft | 272 kts | 66° |
| 2026-05-04 18:54 | 55.71125 | 12.51320 | 6304 ft | 269 kts | 62° |
| 2026-05-04 18:54 | 55.71956 | 12.54210 | 5766 ft | 266 kts | 60° |
| 2026-05-04 18:54 | 55.72792 | 12.57129 | 5384 ft | 261 kts | 61° |
| 2026-05-04 18:54 | 55.73596 | 12.59954 | 5164 ft | 253 kts | 60° |
| 2026-05-04 18:55 | 55.74388 | 12.62706 | 4867 ft | 251 kts | 60° |
| 2026-05-04 18:55 | 55.75959 | 12.68145 | 4213 ft | 247 kts | 60° |
| 2026-05-04 18:55 | 55.76745 | 12.70876 | 3905 ft | 244 kts | 60° |
| 2026-05-04 18:56 | 55.77512 | 12.73551 | 3608 ft | 241 kts | 60° |
| 2026-05-04 18:56 | 55.78256 | 12.76160 | 3355 ft | 236 kts | 60° |
| 2026-05-04 18:56 | 55.78973 | 12.78685 | 3257 ft | 221 kts | 60° |
| 2026-05-04 18:56 | 55.79649 | 12.81086 | 3050 ft | 215 kts | 60° |
| 2026-05-04 18:57 | 55.80308 | 12.83484 | 3021 ft | 215 kts | 64° |
| 2026-05-04 18:57 | 55.80492 | 12.86032 | 3027 ft | 206 kts | 91° |
| 2026-05-04 18:57 | 55.80350 | 12.88544 | 3025 ft | 202 kts | 95° |
| 2026-05-04 18:57 | 55.80181 | 12.91015 | 3021 ft | 200 kts | 96° |
| 2026-05-04 18:58 | 55.79674 | 12.93251 | 3017 ft | 200 kts | 131° |
| 2026-05-04 18:58 | 55.78490 | 12.94383 | 3015 ft | 195 kts | 179° |
| 2026-05-04 18:58 | 55.77286 | 12.93605 | 3020 ft | 184 kts | 229° |
| 2026-05-04 18:58 | 55.76801 | 12.91597 | 3045 ft | 177 kts | 261° |
| 2026-05-04 18:59 | 55.76421 | 12.89509 | 3031 ft | 179 kts | 248° |
| 2026-05-04 18:59 | 55.75718 | 12.87659 | 3027 ft | 183 kts | 233° |
| 2026-05-04 18:59 | 55.74843 | 12.86033 | 3027 ft | 183 kts | 228° |
| 2026-05-04 18:59 | 55.73905 | 12.84486 | 2972 ft | 184 kts | 226° |
| 2026-05-04 19:00 | 55.72952 | 12.82975 | 2779 ft | 183 kts | 226° |
| 2026-05-04 19:00 | 55.71997 | 12.81476 | 2547 ft | 183 kts | 226° |
| 2026-05-04 19:00 | 55.71042 | 12.79985 | 2303 ft | 183 kts | 226° |
| 2026-05-04 19:00 | 55.70091 | 12.78502 | 2056 ft | 181 kts | 226° |
| 2026-05-04 19:01 | 55.69147 | 12.77031 | 1808 ft | 180 kts | 226° |
| 2026-05-04 19:01 | 55.68270 | 12.75671 | 1579 ft | 154 kts | 225° |
| 2026-05-04 19:01 | 55.67525 | 12.74515 | 1382 ft | 134 kts | 226° |
| 2026-05-04 19:01 | 55.66852 | 12.73466 | 1201 ft | 124 kts | 227° |
| 2026-05-04 19:02 | 55.66212 | 12.72469 | 1037 ft | 121 kts | 227° |
| 2026-05-04 19:02 | 55.65585 | 12.71483 | 855 ft | 121 kts | 224° |
| 2026-05-04 19:02 | 55.64941 | 12.70525 | 695 ft | 120 kts | 225° |
| 2026-05-04 19:02 | 55.64314 | 12.69552 | 533 ft | 121 kts | 224° |
| 2026-05-04 19:03 | 55.63685 | 12.68554 | 372 ft | 121 kts | 224° |
| 2026-05-04 19:03 | 55.63056 | 12.67562 | 205 ft | 121 kts | 225° |
| 2026-05-04 19:03 | 55.62422 | 12.66580 | 32 ft | 120 kts | 225° |
| 2026-05-04 19:03 | 55.61885 | 12.65741 | 19 ft | 83 kts | 221° |
| 2026-05-04 19:04 | 55.61616 | 12.65301 | 16 ft | 30 kts | 241° |
| 2026-05-04 19:04 | 55.61625 | 12.65002 | 19 ft | 21 kts | 297° |
| 2026-05-04 19:04 | 55.61706 | 12.64842 | 17 ft | 14 kts | 322° |
| 2026-05-04 19:04 | 55.61779 | 12.64786 | 17 ft | 9 kts | 348° |
| 2026-05-04 19:05 | 55.61825 | 12.64784 | 18 ft | 4 kts | 5° |
| 2026-05-04 19:05 | 55.61852 | 12.64791 | 17 ft | 6 kts | 12° |
| 2026-05-04 19:05 | 55.61904 | 12.64830 | 17 ft | 9 kts | 35° |
| 2026-05-04 19:05 | 55.61947 | 12.64881 | 17 ft | 8 kts | 31° |
| 2026-05-04 19:06 | 55.61964 | 12.64900 | 18 ft | 1 kts | 34° |
| 2026-05-04 19:06 | 55.61970 | 12.64907 | 18 ft | 0 kts | 34° |
| 2026-05-04 19:07 | 55.61979 | 12.64918 | 17 ft | 6 kts | 34° |
| 2026-05-04 19:07 | 55.62027 | 12.64945 | 18 ft | 8 kts | 342° |
| 2026-05-04 19:07 | 55.62065 | 12.64858 | 20 ft | 11 kts | 303° |
| 2026-05-04 19:07 | 55.62079 | 12.64822 | 20 ft | 0 kts | 303° |
| 2026-05-04 19:08 | 55.62080 | 12.64818 | 20 ft | 3 kts | 303° |
| 2026-05-04 19:08 | 55.62109 | 12.64740 | 19 ft | 12 kts | 303° |
| 2026-05-04 19:09 | 55.62160 | 12.64600 | 18 ft | 13 kts | 303° |
| 2026-05-04 19:09 | 55.62220 | 12.64439 | 16 ft | 18 kts | 303° |
| 2026-05-04 19:09 | 55.62290 | 12.64250 | 15 ft | 20 kts | 303° |
| 2026-05-04 19:09 | 55.62373 | 12.64025 | 15 ft | 23 kts | 303° |
| 2026-05-04 19:10 | 55.62460 | 12.63788 | 17 ft | 22 kts | 303° |
| 2026-05-04 19:10 | 55.62550 | 12.63555 | 17 ft | 24 kts | 312° |
| 2026-05-04 19:10 | 55.62618 | 12.63504 | 17 ft | 0 kts | 357° |
| 2026-05-04 19:11 | 55.62619 | 12.63503 | 17 ft | 1 kts | 357° |
| 2026-05-04 19:11 | 55.62652 | 12.63490 | 18 ft | 8 kts | 336° |
| 2026-05-04 19:12 | 55.62703 | 12.63385 | 16 ft | 14 kts | 302° |
| 2026-05-04 19:12 | 55.62849 | 12.63448 | 17 ft | 15 kts | 71° |
| 2026-05-04 19:12 | 55.62858 | 12.63633 | 17 ft | 16 kts | 85° |
| 2026-05-04 19:13 | 55.62850 | 12.63777 | 17 ft | 9 kts | 105° |
| 2026-05-04 19:13 | 55.62848 | 12.63790 | 19 ft | 0 kts | 104° |
| 2026-05-04 19:14 | 55.62847 | 12.63795 | 18 ft | 2 kts | 104° |
| 2026-05-04 19:14 | 55.62838 | 12.63864 | 17 ft | 9 kts | 104° |
| 2026-05-04 19:15 | 55.62868 | 12.63930 | 17 ft | 7 kts | 12° |
| 2026-05-04 19:15 | 55.62879 | 12.63934 | 17 ft | 0 kts | 12° |